sensor_id;sensor_type;location;lat;lon;timestamp;temperature;humidity
336;DHT22;156;48.738;9.228;2022-07-23T00:01:11;23.70;1.00
336;DHT22;156;48.738;9.228;2022-07-23T00:03:38;23.70;1.00
336;DHT22;156;48.738;9.228;2022-07-23T00:06:05;23.70;1.00
336;DHT22;156;48.738;9.228;2022-07-23T00:08:32;23.50;1.00
336;DHT22;156;48.738;9.228;2022-07-23T00:10:59;23.50;1.00
336;DHT22;156;48.738;9.228;2022-07-23T00:13:27;23.50;1.00
336;DHT22;156;48.738;9.228;2022-07-23T00:15:54;23.40;1.00
336;DHT22;156;48.738;9.228;2022-07-23T00:18:22;23.50;1.00
336;DHT22;156;48.738;9.228;2022-07-23T00:20:49;23.60;1.00
336;DHT22;156;48.738;9.228;2022-07-23T00:23:16;23.60;1.00
336;DHT22;156;48.738;9.228;2022-07-23T00:25:43;23.60;1.00
336;DHT22;156;48.738;9.228;2022-07-23T00:28:11;23.70;1.00
336;DHT22;156;48.738;9.228;2022-07-23T00:30:38;23.60;1.00
336;DHT22;156;48.738;9.228;2022-07-23T00:33:06;23.60;1.00
336;DHT22;156;48.738;9.228;2022-07-23T00:35:37;23.60;1.00
336;DHT22;156;48.738;9.228;2022-07-23T00:38:07;23.50;1.00
336;DHT22;156;48.738;9.228;2022-07-23T00:40:35;23.40;1.00
336;DHT22;156;48.738;9.228;2022-07-23T00:43:02;23.20;1.00
336;DHT22;156;48.738;9.228;2022-07-23T00:45:29;23.20;1.00
336;DHT22;156;48.738;9.228;2022-07-23T00:47:56;23.00;1.00
336;DHT22;156;48.738;9.228;2022-07-23T00:50:24;22.90;1.00
336;DHT22;156;48.738;9.228;2022-07-23T00:52:52;22.90;1.00
336;DHT22;156;48.738;9.228;2022-07-23T00:55:20;22.80;1.00
336;DHT22;156;48.738;9.228;2022-07-23T00:57:47;22.80;1.00
336;DHT22;156;48.738;9.228;2022-07-23T01:00:15;22.80;1.00
336;DHT22;156;48.738;9.228;2022-07-23T01:02:42;22.80;1.00
336;DHT22;156;48.738;9.228;2022-07-23T01:05:09;22.70;1.00
336;DHT22;156;48.738;9.228;2022-07-23T01:07:36;22.70;1.00
336;DHT22;156;48.738;9.228;2022-07-23T01:10:06;22.60;1.00
336;DHT22;156;48.738;9.228;2022-07-23T01:12:54;22.60;1.00
336;DHT22;156;48.738;9.228;2022-07-23T01:15:21;22.50;1.00
336;DHT22;156;48.738;9.228;2022-07-23T01:17:48;22.60;1.00
336;DHT22;156;48.738;9.228;2022-07-23T01:20:16;22.60;1.00
336;DHT22;156;48.738;9.228;2022-07-23T01:22:44;22.50;1.00
336;DHT22;156;48.738;9.228;2022-07-23T01:25:11;22.50;1.00
336;DHT22;156;48.738;9.228;2022-07-23T01:27:38;22.50;1.00
336;DHT22;156;48.738;9.228;2022-07-23T01:30:06;22.50;1.00
336;DHT22;156;48.738;9.228;2022-07-23T01:32:33;22.50;1.00
336;DHT22;156;48.738;9.228;2022-07-23T01:35:00;22.50;1.00
336;DHT22;156;48.738;9.228;2022-07-23T01:37:27;22.50;1.00
336;DHT22;156;48.738;9.228;2022-07-23T01:39:56;22.50;1.00
336;DHT22;156;48.738;9.228;2022-07-23T01:42:22;22.70;1.00
336;DHT22;156;48.738;9.228;2022-07-23T01:44:49;22.70;1.00
336;DHT22;156;48.738;9.228;2022-07-23T01:47:16;22.80;1.00
336;DHT22;156;48.738;9.228;2022-07-23T01:49:43;22.70;1.00
336;DHT22;156;48.738;9.228;2022-07-23T01:52:10;22.80;1.00
336;DHT22;156;48.738;9.228;2022-07-23T01:54:38;22.60;1.00
336;DHT22;156;48.738;9.228;2022-07-23T01:57:07;22.50;1.00
336;DHT22;156;48.738;9.228;2022-07-23T01:59:34;22.40;1.00
336;DHT22;156;48.738;9.228;2022-07-23T02:02:02;22.30;1.00
336;DHT22;156;48.738;9.228;2022-07-23T02:04:31;22.30;1.00
336;DHT22;156;48.738;9.228;2022-07-23T02:07:01;22.20;1.00
336;DHT22;156;48.738;9.228;2022-07-23T02:09:28;22.20;1.00
336;DHT22;156;48.738;9.228;2022-07-23T02:11:56;22.20;1.00
336;DHT22;156;48.738;9.228;2022-07-23T02:14:25;22.20;1.00
336;DHT22;156;48.738;9.228;2022-07-23T02:16:52;22.20;1.00
336;DHT22;156;48.738;9.228;2022-07-23T02:19:19;22.20;1.00
336;DHT22;156;48.738;9.228;2022-07-23T02:21:46;22.10;1.00
336;DHT22;156;48.738;9.228;2022-07-23T02:24:13;22.00;1.00
336;DHT22;156;48.738;9.228;2022-07-23T02:26:40;21.90;1.00
336;DHT22;156;48.738;9.228;2022-07-23T02:29:07;21.90;1.00
336;DHT22;156;48.738;9.228;2022-07-23T02:31:35;21.90;1.00
336;DHT22;156;48.738;9.228;2022-07-23T02:34:02;21.90;1.00
336;DHT22;156;48.738;9.228;2022-07-23T02:36:29;22.00;1.00
336;DHT22;156;48.738;9.228;2022-07-23T02:38:57;21.90;1.00
336;DHT22;156;48.738;9.228;2022-07-23T02:41:24;21.60;1.00
336;DHT22;156;48.738;9.228;2022-07-23T02:43:50;21.60;1.00
336;DHT22;156;48.738;9.228;2022-07-23T02:46:17;21.60;1.00
336;DHT22;156;48.738;9.228;2022-07-23T02:48:46;21.60;1.00
336;DHT22;156;48.738;9.228;2022-07-23T02:51:12;21.70;1.00
336;DHT22;156;48.738;9.228;2022-07-23T02:53:39;21.60;1.00
336;DHT22;156;48.738;9.228;2022-07-23T02:56:06;21.60;1.00
336;DHT22;156;48.738;9.228;2022-07-23T02:58:33;21.60;1.00
336;DHT22;156;48.738;9.228;2022-07-23T03:01:00;21.60;1.00
336;DHT22;156;48.738;9.228;2022-07-23T03:03:27;21.60;1.00
336;DHT22;156;48.738;9.228;2022-07-23T03:05:56;21.60;1.00
336;DHT22;156;48.738;9.228;2022-07-23T03:08:23;21.60;1.00
336;DHT22;156;48.738;9.228;2022-07-23T03:10:50;21.50;1.00
336;DHT22;156;48.738;9.228;2022-07-23T03:13:17;21.60;1.00
336;DHT22;156;48.738;9.228;2022-07-23T03:15:44;21.60;1.00
336;DHT22;156;48.738;9.228;2022-07-23T03:18:11;21.70;1.00
336;DHT22;156;48.738;9.228;2022-07-23T03:20:38;21.70;1.00
336;DHT22;156;48.738;9.228;2022-07-23T03:23:06;21.70;1.00
336;DHT22;156;48.738;9.228;2022-07-23T03:25:33;21.70;1.00
336;DHT22;156;48.738;9.228;2022-07-23T03:28:00;21.60;1.00
336;DHT22;156;48.738;9.228;2022-07-23T03:30:27;21.50;1.00
336;DHT22;156;48.738;9.228;2022-07-23T03:32:54;21.50;1.00
336;DHT22;156;48.738;9.228;2022-07-23T03:35:21;21.50;1.00
336;DHT22;156;48.738;9.228;2022-07-23T03:37:48;21.50;1.00
336;DHT22;156;48.738;9.228;2022-07-23T03:40:16;21.60;1.00
336;DHT22;156;48.738;9.228;2022-07-23T03:42:43;21.60;1.00
336;DHT22;156;48.738;9.228;2022-07-23T03:45:11;21.80;1.00
336;DHT22;156;48.738;9.228;2022-07-23T03:47:38;21.70;1.00
336;DHT22;156;48.738;9.228;2022-07-23T03:50:07;21.60;1.00
336;DHT22;156;48.738;9.228;2022-07-23T03:52:34;21.50;1.00
336;DHT22;156;48.738;9.228;2022-07-23T03:55:02;21.40;1.00
336;DHT22;156;48.738;9.228;2022-07-23T03:57:30;21.40;1.60
336;DHT22;156;48.738;9.228;2022-07-23T03:59:57;21.30;3.20
336;DHT22;156;48.738;9.228;2022-07-23T04:02:24;21.30;4.00
336;DHT22;156;48.738;9.228;2022-07-23T04:04:51;21.30;5.30
336;DHT22;156;48.738;9.228;2022-07-23T04:07:18;21.20;7.00
336;DHT22;156;48.738;9.228;2022-07-23T04:09:45;21.20;8.10
336;DHT22;156;48.738;9.228;2022-07-23T04:12:12;21.20;8.20
336;DHT22;156;48.738;9.228;2022-07-23T04:14:40;21.10;10.30
336;DHT22;156;48.738;9.228;2022-07-23T04:17:07;21.00;12.70
336;DHT22;156;48.738;9.228;2022-07-23T04:19:34;21.00;13.70
336;DHT22;156;48.738;9.228;2022-07-23T04:22:05;21.00;15.40
336;DHT22;156;48.738;9.228;2022-07-23T04:24:32;21.00;15.00
336;DHT22;156;48.738;9.228;2022-07-23T04:26:59;21.10;14.90
336;DHT22;156;48.738;9.228;2022-07-23T04:29:26;21.20;12.20
336;DHT22;156;48.738;9.228;2022-07-23T04:31:54;21.20;12.90
336;DHT22;156;48.738;9.228;2022-07-23T04:34:21;21.20;9.90
336;DHT22;156;48.738;9.228;2022-07-23T04:36:48;21.30;9.60
336;DHT22;156;48.738;9.228;2022-07-23T04:39:15;21.30;11.10
336;DHT22;156;48.738;9.228;2022-07-23T04:41:42;21.30;9.10
336;DHT22;156;48.738;9.228;2022-07-23T04:44:09;21.40;8.70
336;DHT22;156;48.738;9.228;2022-07-23T04:46:36;21.40;8.00
336;DHT22;156;48.738;9.228;2022-07-23T04:49:04;21.50;7.20
336;DHT22;156;48.738;9.228;2022-07-23T04:51:31;21.50;5.90
336;DHT22;156;48.738;9.228;2022-07-23T04:53:58;21.50;4.50
336;DHT22;156;48.738;9.228;2022-07-23T04:56:25;21.50;3.80
336;DHT22;156;48.738;9.228;2022-07-23T04:58:52;21.60;3.60
336;DHT22;156;48.738;9.228;2022-07-23T05:01:19;21.60;3.50
336;DHT22;156;48.738;9.228;2022-07-23T05:03:46;21.70;3.20
336;DHT22;156;48.738;9.228;2022-07-23T05:06:15;21.70;2.60
336;DHT22;156;48.738;9.228;2022-07-23T05:08:42;21.80;1.60
336;DHT22;156;48.738;9.228;2022-07-23T05:11:09;21.90;1.00
336;DHT22;156;48.738;9.228;2022-07-23T05:13:36;21.90;1.00
336;DHT22;156;48.738;9.228;2022-07-23T05:16:04;21.90;1.00
336;DHT22;156;48.738;9.228;2022-07-23T05:18:31;22.00;1.00
336;DHT22;156;48.738;9.228;2022-07-23T05:20:58;22.10;1.00
336;DHT22;156;48.738;9.228;2022-07-23T05:23:26;22.20;1.00
336;DHT22;156;48.738;9.228;2022-07-23T05:25:53;22.20;1.00
336;DHT22;156;48.738;9.228;2022-07-23T05:28:20;22.20;1.00
336;DHT22;156;48.738;9.228;2022-07-23T05:30:47;22.30;1.00
336;DHT22;156;48.738;9.228;2022-07-23T05:33:14;22.40;1.00
336;DHT22;156;48.738;9.228;2022-07-23T05:35:40;22.50;1.00
336;DHT22;156;48.738;9.228;2022-07-23T05:38:07;22.40;1.00
336;DHT22;156;48.738;9.228;2022-07-23T05:40:36;22.40;1.00
336;DHT22;156;48.738;9.228;2022-07-23T05:43:03;22.40;1.00
336;DHT22;156;48.738;9.228;2022-07-23T05:45:29;22.50;1.00
336;DHT22;156;48.738;9.228;2022-07-23T05:47:56;22.50;1.00
336;DHT22;156;48.738;9.228;2022-07-23T05:50:23;22.60;1.00
336;DHT22;156;48.738;9.228;2022-07-23T05:52:50;22.60;1.00
336;DHT22;156;48.738;9.228;2022-07-23T05:55:17;22.70;1.00
336;DHT22;156;48.738;9.228;2022-07-23T05:57:45;22.70;1.00
336;DHT22;156;48.738;9.228;2022-07-23T06:00:13;22.70;1.00
336;DHT22;156;48.738;9.228;2022-07-23T06:02:40;22.70;1.00
336;DHT22;156;48.738;9.228;2022-07-23T06:05:07;22.90;1.00
336;DHT22;156;48.738;9.228;2022-07-23T06:07:34;22.90;1.00
336;DHT22;156;48.738;9.228;2022-07-23T06:10:02;22.90;1.00
336;DHT22;156;48.738;9.228;2022-07-23T06:12:29;22.90;1.00
336;DHT22;156;48.738;9.228;2022-07-23T06:14:57;22.80;1.00
336;DHT22;156;48.738;9.228;2022-07-23T06:17:25;22.90;1.00
336;DHT22;156;48.738;9.228;2022-07-23T06:19:52;22.90;1.00
336;DHT22;156;48.738;9.228;2022-07-23T06:22:19;23.00;1.00
336;DHT22;156;48.738;9.228;2022-07-23T06:24:46;23.00;1.00
336;DHT22;156;48.738;9.228;2022-07-23T06:27:13;23.00;1.00
336;DHT22;156;48.738;9.228;2022-07-23T06:29:40;22.90;1.00
336;DHT22;156;48.738;9.228;2022-07-23T06:32:09;23.20;1.00
336;DHT22;156;48.738;9.228;2022-07-23T06:34:36;23.30;1.00
336;DHT22;156;48.738;9.228;2022-07-23T06:37:02;23.30;1.00
336;DHT22;156;48.738;9.228;2022-07-23T06:39:29;23.20;1.00
336;DHT22;156;48.738;9.228;2022-07-23T06:41:56;23.00;1.00
336;DHT22;156;48.738;9.228;2022-07-23T06:44:23;22.90;1.00
336;DHT22;156;48.738;9.228;2022-07-23T06:46:50;22.80;1.00
336;DHT22;156;48.738;9.228;2022-07-23T06:49:21;22.80;1.00
336;DHT22;156;48.738;9.228;2022-07-23T06:51:48;22.90;1.00
336;DHT22;156;48.738;9.228;2022-07-23T06:54:15;22.90;1.00
336;DHT22;156;48.738;9.228;2022-07-23T06:56:44;22.90;1.00
336;DHT22;156;48.738;9.228;2022-07-23T06:59:11;22.90;1.00
336;DHT22;156;48.738;9.228;2022-07-23T07:01:39;22.90;1.00
336;DHT22;156;48.738;9.228;2022-07-23T07:04:06;22.80;1.00
336;DHT22;156;48.738;9.228;2022-07-23T07:06:34;22.80;1.00
336;DHT22;156;48.738;9.228;2022-07-23T07:09:01;22.80;1.00
336;DHT22;156;48.738;9.228;2022-07-23T07:11:29;22.70;1.00
336;DHT22;156;48.738;9.228;2022-07-23T07:13:55;22.60;1.00
336;DHT22;156;48.738;9.228;2022-07-23T07:16:22;22.60;1.00
336;DHT22;156;48.738;9.228;2022-07-23T07:18:49;22.60;1.00
336;DHT22;156;48.738;9.228;2022-07-23T07:21:17;22.60;1.00
336;DHT22;156;48.738;9.228;2022-07-23T07:23:45;22.50;1.00
336;DHT22;156;48.738;9.228;2022-07-23T07:26:12;22.40;1.00
336;DHT22;156;48.738;9.228;2022-07-23T07:28:39;22.30;1.00
336;DHT22;156;48.738;9.228;2022-07-23T07:31:06;22.20;1.00
336;DHT22;156;48.738;9.228;2022-07-23T07:33:33;22.20;1.00
336;DHT22;156;48.738;9.228;2022-07-23T07:36:00;22.20;1.00
336;DHT22;156;48.738;9.228;2022-07-23T07:38:27;22.20;1.00
336;DHT22;156;48.738;9.228;2022-07-23T07:40:55;22.20;1.00
336;DHT22;156;48.738;9.228;2022-07-23T07:43:22;22.20;1.00
336;DHT22;156;48.738;9.228;2022-07-23T07:45:49;22.10;1.00
336;DHT22;156;48.738;9.228;2022-07-23T07:48:16;22.20;1.00
336;DHT22;156;48.738;9.228;2022-07-23T07:50:43;22.30;1.00
336;DHT22;156;48.738;9.228;2022-07-23T07:53:10;22.30;1.00
336;DHT22;156;48.738;9.228;2022-07-23T07:55:37;22.30;1.00
336;DHT22;156;48.738;9.228;2022-07-23T07:58:05;22.40;1.00
336;DHT22;156;48.738;9.228;2022-07-23T08:00:32;22.30;1.00
336;DHT22;156;48.738;9.228;2022-07-23T08:02:59;22.50;1.00
336;DHT22;156;48.738;9.228;2022-07-23T08:05:28;22.60;1.00
336;DHT22;156;48.738;9.228;2022-07-23T08:07:56;22.70;1.00
336;DHT22;156;48.738;9.228;2022-07-23T08:10:24;22.60;1.00
336;DHT22;156;48.738;9.228;2022-07-23T08:12:52;22.60;1.00
336;DHT22;156;48.738;9.228;2022-07-23T08:15:23;22.20;1.00
336;DHT22;156;48.738;9.228;2022-07-23T08:17:50;22.00;1.00
336;DHT22;156;48.738;9.228;2022-07-23T08:20:19;21.90;1.00
336;DHT22;156;48.738;9.228;2022-07-23T08:22:48;22.00;1.00
336;DHT22;156;48.738;9.228;2022-07-23T08:25:15;22.10;1.00
336;DHT22;156;48.738;9.228;2022-07-23T08:27:42;21.90;1.00
336;DHT22;156;48.738;9.228;2022-07-23T08:30:09;21.80;1.00
336;DHT22;156;48.738;9.228;2022-07-23T08:32:56;21.70;1.00
336;DHT22;156;48.738;9.228;2022-07-23T08:35:27;21.70;1.00
336;DHT22;156;48.738;9.228;2022-07-23T08:37:56;21.70;1.00
336;DHT22;156;48.738;9.228;2022-07-23T08:40:23;21.80;1.00
336;DHT22;156;48.738;9.228;2022-07-23T08:42:52;22.00;1.00
336;DHT22;156;48.738;9.228;2022-07-23T08:45:21;22.20;1.00
336;DHT22;156;48.738;9.228;2022-07-23T08:47:54;22.40;1.00
336;DHT22;156;48.738;9.228;2022-07-23T08:50:22;22.50;1.00
336;DHT22;156;48.738;9.228;2022-07-23T08:52:50;22.50;1.00
336;DHT22;156;48.738;9.228;2022-07-23T08:55:19;22.50;1.00
336;DHT22;156;48.738;9.228;2022-07-23T08:57:48;22.80;1.00
336;DHT22;156;48.738;9.228;2022-07-23T09:00:17;23.20;1.00
336;DHT22;156;48.738;9.228;2022-07-23T09:02:45;23.20;1.00
336;DHT22;156;48.738;9.228;2022-07-23T09:05:14;23.10;1.00
336;DHT22;156;48.738;9.228;2022-07-23T09:08:03;23.20;1.00
336;DHT22;156;48.738;9.228;2022-07-23T09:10:30;23.20;1.00
336;DHT22;156;48.738;9.228;2022-07-23T09:13:26;23.20;1.00
336;DHT22;156;48.738;9.228;2022-07-23T09:15:55;23.20;1.00
336;DHT22;156;48.738;9.228;2022-07-23T09:18:38;23.40;1.00
336;DHT22;156;48.738;9.228;2022-07-23T09:23:53;23.70;1.00
336;DHT22;156;48.738;9.228;2022-07-23T09:26:23;23.90;1.00
336;DHT22;156;48.738;9.228;2022-07-23T09:28:56;24.10;1.00
336;DHT22;156;48.738;9.228;2022-07-23T09:31:24;24.20;1.00
336;DHT22;156;48.738;9.228;2022-07-23T09:33:51;24.40;1.00
336;DHT22;156;48.738;9.228;2022-07-23T09:36:33;24.40;1.00
336;DHT22;156;48.738;9.228;2022-07-23T09:39:00;24.40;1.00
336;DHT22;156;48.738;9.228;2022-07-23T09:41:34;24.30;1.00
336;DHT22;156;48.738;9.228;2022-07-23T09:44:07;24.50;1.00
336;DHT22;156;48.738;9.228;2022-07-23T09:46:35;24.80;1.00
336;DHT22;156;48.738;9.228;2022-07-23T09:49:12;25.00;1.00
336;DHT22;156;48.738;9.228;2022-07-23T09:51:49;25.30;1.00
336;DHT22;156;48.738;9.228;2022-07-23T09:54:40;25.60;1.00
336;DHT22;156;48.738;9.228;2022-07-23T09:57:10;25.70;1.00
336;DHT22;156;48.738;9.228;2022-07-23T09:59:39;25.90;1.00
336;DHT22;156;48.738;9.228;2022-07-23T10:02:09;26.00;1.00
336;DHT22;156;48.738;9.228;2022-07-23T10:04:38;26.00;1.00
336;DHT22;156;48.738;9.228;2022-07-23T10:07:08;26.10;1.00
336;DHT22;156;48.738;9.228;2022-07-23T10:09:37;26.00;1.00
336;DHT22;156;48.738;9.228;2022-07-23T10:12:10;25.70;1.00
336;DHT22;156;48.738;9.228;2022-07-23T10:14:49;26.00;1.00
336;DHT22;156;48.738;9.228;2022-07-23T10:17:17;26.30;1.00
336;DHT22;156;48.738;9.228;2022-07-23T10:19:44;26.50;1.00
336;DHT22;156;48.738;9.228;2022-07-23T10:22:19;26.60;1.00
336;DHT22;156;48.738;9.228;2022-07-23T10:24:52;26.60;1.00
336;DHT22;156;48.738;9.228;2022-07-23T10:27:40;26.40;1.00
336;DHT22;156;48.738;9.228;2022-07-23T10:30:15;26.40;1.00
336;DHT22;156;48.738;9.228;2022-07-23T10:32:53;26.50;1.00
336;DHT22;156;48.738;9.228;2022-07-23T10:35:29;26.30;1.00
336;DHT22;156;48.738;9.228;2022-07-23T10:38:02;26.30;1.00
336;DHT22;156;48.738;9.228;2022-07-23T10:40:32;26.50;1.00
336;DHT22;156;48.738;9.228;2022-07-23T10:43:00;26.30;1.00
336;DHT22;156;48.738;9.228;2022-07-23T10:45:30;26.20;1.00
336;DHT22;156;48.738;9.228;2022-07-23T10:48:13;26.30;1.00
336;DHT22;156;48.738;9.228;2022-07-23T10:50:41;26.30;1.00
336;DHT22;156;48.738;9.228;2022-07-23T10:53:13;26.50;1.00
336;DHT22;156;48.738;9.228;2022-07-23T10:55:44;26.60;1.00
336;DHT22;156;48.738;9.228;2022-07-23T10:58:17;26.60;1.00
336;DHT22;156;48.738;9.228;2022-07-23T11:00:45;26.60;1.00
336;DHT22;156;48.738;9.228;2022-07-23T11:03:30;26.60;1.00
336;DHT22;156;48.738;9.228;2022-07-23T11:05:59;26.60;1.00
336;DHT22;156;48.738;9.228;2022-07-23T11:08:27;26.70;1.00
336;DHT22;156;48.738;9.228;2022-07-23T11:11:07;26.50;1.00
336;DHT22;156;48.738;9.228;2022-07-23T11:13:46;26.70;1.00
336;DHT22;156;48.738;9.228;2022-07-23T11:16:20;26.90;1.00
336;DHT22;156;48.738;9.228;2022-07-23T11:18:59;27.10;1.00
336;DHT22;156;48.738;9.228;2022-07-23T11:21:47;27.20;1.00
336;DHT22;156;48.738;9.228;2022-07-23T11:24:20;27.10;1.00
336;DHT22;156;48.738;9.228;2022-07-23T11:26:54;27.20;1.00
336;DHT22;156;48.738;9.228;2022-07-23T11:29:49;27.60;1.00
336;DHT22;156;48.738;9.228;2022-07-23T11:32:37;27.60;1.00
336;DHT22;156;48.738;9.228;2022-07-23T11:35:25;27.30;1.00
336;DHT22;156;48.738;9.228;2022-07-23T11:37:54;27.40;1.00
336;DHT22;156;48.738;9.228;2022-07-23T11:40:25;27.50;1.00
336;DHT22;156;48.738;9.228;2022-07-23T11:42:58;27.40;1.00
336;DHT22;156;48.738;9.228;2022-07-23T11:45:31;27.40;1.00
336;DHT22;156;48.738;9.228;2022-07-23T11:47:58;27.80;1.00
336;DHT22;156;48.738;9.228;2022-07-23T11:50:25;27.80;1.00
336;DHT22;156;48.738;9.228;2022-07-23T11:52:52;27.90;1.00
336;DHT22;156;48.738;9.228;2022-07-23T11:55:20;27.20;1.00
336;DHT22;156;48.738;9.228;2022-07-23T11:57:50;27.60;1.00
336;DHT22;156;48.738;9.228;2022-07-23T12:00:19;27.90;1.00
336;DHT22;156;48.738;9.228;2022-07-23T12:02:48;27.80;1.00
336;DHT22;156;48.738;9.228;2022-07-23T12:05:17;27.80;1.00
336;DHT22;156;48.738;9.228;2022-07-23T12:07:47;27.70;1.00
336;DHT22;156;48.738;9.228;2022-07-23T12:10:18;27.80;1.00
336;DHT22;156;48.738;9.228;2022-07-23T12:12:46;27.80;1.00
336;DHT22;156;48.738;9.228;2022-07-23T12:15:19;27.90;1.00
336;DHT22;156;48.738;9.228;2022-07-23T12:17:48;27.70;1.00
336;DHT22;156;48.738;9.228;2022-07-23T12:20:16;27.40;1.00
336;DHT22;156;48.738;9.228;2022-07-23T12:22:45;27.40;1.00
336;DHT22;156;48.738;9.228;2022-07-23T12:25:13;27.40;1.00
336;DHT22;156;48.738;9.228;2022-07-23T12:27:41;27.50;1.00
336;DHT22;156;48.738;9.228;2022-07-23T12:30:17;27.60;1.00
336;DHT22;156;48.738;9.228;2022-07-23T12:32:45;27.80;1.00
336;DHT22;156;48.738;9.228;2022-07-23T12:35:13;27.80;1.00
336;DHT22;156;48.738;9.228;2022-07-23T12:37:42;28.00;1.00
336;DHT22;156;48.738;9.228;2022-07-23T12:40:24;28.00;1.00
336;DHT22;156;48.738;9.228;2022-07-23T12:42:53;27.90;1.00
336;DHT22;156;48.738;9.228;2022-07-23T12:45:21;28.00;1.00
336;DHT22;156;48.738;9.228;2022-07-23T12:48:01;27.80;1.00
336;DHT22;156;48.738;9.228;2022-07-23T12:50:37;27.80;1.00
336;DHT22;156;48.738;9.228;2022-07-23T12:53:06;27.90;1.00
336;DHT22;156;48.738;9.228;2022-07-23T12:55:33;28.30;1.00
336;DHT22;156;48.738;9.228;2022-07-23T12:58:11;28.60;1.00
336;DHT22;156;48.738;9.228;2022-07-23T13:01:01;28.90;1.00
336;DHT22;156;48.738;9.228;2022-07-23T13:03:31;29.00;1.00
336;DHT22;156;48.738;9.228;2022-07-23T13:05:59;29.00;1.00
336;DHT22;156;48.738;9.228;2022-07-23T13:08:28;29.10;1.00
336;DHT22;156;48.738;9.228;2022-07-23T13:10:56;28.80;1.00
336;DHT22;156;48.738;9.228;2022-07-23T13:13:24;28.40;1.00
336;DHT22;156;48.738;9.228;2022-07-23T13:15:51;28.30;1.00
336;DHT22;156;48.738;9.228;2022-07-23T13:18:21;28.50;1.00
336;DHT22;156;48.738;9.228;2022-07-23T13:20:48;29.00;1.00
336;DHT22;156;48.738;9.228;2022-07-23T13:23:16;29.20;1.00
336;DHT22;156;48.738;9.228;2022-07-23T13:25:43;28.90;1.00
336;DHT22;156;48.738;9.228;2022-07-23T13:28:11;28.30;1.00
336;DHT22;156;48.738;9.228;2022-07-23T13:30:38;28.10;1.00
336;DHT22;156;48.738;9.228;2022-07-23T13:33:06;28.00;1.00
336;DHT22;156;48.738;9.228;2022-07-23T13:35:35;27.60;1.00
336;DHT22;156;48.738;9.228;2022-07-23T13:38:03;27.70;1.00
336;DHT22;156;48.738;9.228;2022-07-23T13:40:30;27.50;1.00
336;DHT22;156;48.738;9.228;2022-07-23T13:42:57;27.40;1.00
336;DHT22;156;48.738;9.228;2022-07-23T13:45:24;27.60;1.00
336;DHT22;156;48.738;9.228;2022-07-23T13:47:51;27.60;1.00
336;DHT22;156;48.738;9.228;2022-07-23T13:50:18;27.90;1.00
336;DHT22;156;48.738;9.228;2022-07-23T13:52:47;27.90;1.00
336;DHT22;156;48.738;9.228;2022-07-23T13:55:14;28.00;1.00
336;DHT22;156;48.738;9.228;2022-07-23T13:57:41;28.30;1.00
336;DHT22;156;48.738;9.228;2022-07-23T14:00:09;28.60;1.00
336;DHT22;156;48.738;9.228;2022-07-23T14:02:38;29.00;1.00
336;DHT22;156;48.738;9.228;2022-07-23T14:05:06;29.20;1.00
336;DHT22;156;48.738;9.228;2022-07-23T14:07:34;29.50;1.00
336;DHT22;156;48.738;9.228;2022-07-23T14:10:04;29.10;1.00
336;DHT22;156;48.738;9.228;2022-07-23T14:12:32;28.90;1.00
336;DHT22;156;48.738;9.228;2022-07-23T14:14:59;28.70;1.00
336;DHT22;156;48.738;9.228;2022-07-23T14:17:26;28.20;1.00
336;DHT22;156;48.738;9.228;2022-07-23T14:19:57;28.20;1.00
336;DHT22;156;48.738;9.228;2022-07-23T14:22:24;28.40;1.00
336;DHT22;156;48.738;9.228;2022-07-23T14:24:51;28.30;1.00
336;DHT22;156;48.738;9.228;2022-07-23T14:27:19;28.40;1.00
336;DHT22;156;48.738;9.228;2022-07-23T14:29:47;28.40;1.00
336;DHT22;156;48.738;9.228;2022-07-23T14:32:14;29.10;1.00
336;DHT22;156;48.738;9.228;2022-07-23T14:34:41;29.20;1.00
336;DHT22;156;48.738;9.228;2022-07-23T14:37:08;29.80;1.00
336;DHT22;156;48.738;9.228;2022-07-23T14:39:35;30.40;1.00
336;DHT22;156;48.738;9.228;2022-07-23T14:42:03;30.70;1.00
336;DHT22;156;48.738;9.228;2022-07-23T14:44:31;30.80;1.00
336;DHT22;156;48.738;9.228;2022-07-23T14:46:58;30.70;1.00
336;DHT22;156;48.738;9.228;2022-07-23T14:49:26;30.10;1.00
336;DHT22;156;48.738;9.228;2022-07-23T14:51:53;30.10;1.00
336;DHT22;156;48.738;9.228;2022-07-23T14:54:20;29.70;1.00
336;DHT22;156;48.738;9.228;2022-07-23T14:56:47;29.20;1.00
336;DHT22;156;48.738;9.228;2022-07-23T14:59:14;29.30;1.00
336;DHT22;156;48.738;9.228;2022-07-23T15:01:42;29.20;1.00
336;DHT22;156;48.738;9.228;2022-07-23T15:04:09;29.60;1.00
336;DHT22;156;48.738;9.228;2022-07-23T15:06:36;30.00;1.00
336;DHT22;156;48.738;9.228;2022-07-23T15:09:04;30.10;1.00
336;DHT22;156;48.738;9.228;2022-07-23T15:11:31;30.00;1.00
336;DHT22;156;48.738;9.228;2022-07-23T15:14:00;30.00;1.00
336;DHT22;156;48.738;9.228;2022-07-23T15:16:27;30.10;1.00
336;DHT22;156;48.738;9.228;2022-07-23T15:18:55;30.00;1.00
336;DHT22;156;48.738;9.228;2022-07-23T15:21:22;29.70;1.00
336;DHT22;156;48.738;9.228;2022-07-23T15:23:49;29.60;1.00
336;DHT22;156;48.738;9.228;2022-07-23T15:26:16;29.50;1.00
336;DHT22;156;48.738;9.228;2022-07-23T15:28:44;28.70;1.00
336;DHT22;156;48.738;9.228;2022-07-23T15:31:11;28.80;1.00
336;DHT22;156;48.738;9.228;2022-07-23T15:33:38;29.00;1.00
336;DHT22;156;48.738;9.228;2022-07-23T15:36:07;29.40;1.00
336;DHT22;156;48.738;9.228;2022-07-23T15:38:35;29.90;1.00
336;DHT22;156;48.738;9.228;2022-07-23T15:41:02;29.60;1.00
336;DHT22;156;48.738;9.228;2022-07-23T15:43:29;29.50;1.00
336;DHT22;156;48.738;9.228;2022-07-23T15:45:56;29.50;1.00
336;DHT22;156;48.738;9.228;2022-07-23T15:48:24;29.90;1.00
336;DHT22;156;48.738;9.228;2022-07-23T15:50:51;30.00;1.00
336;DHT22;156;48.738;9.228;2022-07-23T15:53:19;30.10;1.00
336;DHT22;156;48.738;9.228;2022-07-23T15:55:46;30.50;1.00
336;DHT22;156;48.738;9.228;2022-07-23T15:58:13;30.50;1.00
336;DHT22;156;48.738;9.228;2022-07-23T16:00:41;30.90;1.00
336;DHT22;156;48.738;9.228;2022-07-23T16:03:08;30.60;1.00
336;DHT22;156;48.738;9.228;2022-07-23T16:05:35;30.30;1.00
336;DHT22;156;48.738;9.228;2022-07-23T16:08:03;30.70;1.00
336;DHT22;156;48.738;9.228;2022-07-23T16:10:32;30.60;1.00
336;DHT22;156;48.738;9.228;2022-07-23T16:12:59;30.70;1.00
336;DHT22;156;48.738;9.228;2022-07-23T16:15:26;30.50;1.00
336;DHT22;156;48.738;9.228;2022-07-23T16:17:54;30.10;1.00
336;DHT22;156;48.738;9.228;2022-07-23T16:20:21;29.50;1.00
336;DHT22;156;48.738;9.228;2022-07-23T16:22:48;29.10;1.00
336;DHT22;156;48.738;9.228;2022-07-23T16:25:15;29.20;1.00
336;DHT22;156;48.738;9.228;2022-07-23T16:27:43;29.50;1.00
336;DHT22;156;48.738;9.228;2022-07-23T16:30:12;30.10;1.00
336;DHT22;156;48.738;9.228;2022-07-23T16:32:39;29.90;1.00
336;DHT22;156;48.738;9.228;2022-07-23T16:35:07;30.00;1.00
336;DHT22;156;48.738;9.228;2022-07-23T16:37:34;30.20;1.00
336;DHT22;156;48.738;9.228;2022-07-23T16:40:02;29.90;1.00
336;DHT22;156;48.738;9.228;2022-07-23T16:42:29;29.80;1.00
336;DHT22;156;48.738;9.228;2022-07-23T16:44:57;29.50;1.00
336;DHT22;156;48.738;9.228;2022-07-23T16:47:24;29.00;1.00
336;DHT22;156;48.738;9.228;2022-07-23T16:49:51;28.60;1.00
336;DHT22;156;48.738;9.228;2022-07-23T16:52:19;28.60;1.00
336;DHT22;156;48.738;9.228;2022-07-23T16:54:45;29.00;1.00
336;DHT22;156;48.738;9.228;2022-07-23T16:57:12;28.90;1.00
336;DHT22;156;48.738;9.228;2022-07-23T16:59:39;28.80;1.00
336;DHT22;156;48.738;9.228;2022-07-23T17:02:08;28.80;1.00
336;DHT22;156;48.738;9.228;2022-07-23T17:04:35;28.90;1.00